Seago Bremerhaven — OXVA2 — position and weather

sailwx.info

Track history (hours):
 
Tides and Currents Weather Stations Pressure Air Temp Water Temp Dewpoint Dewpoint Depression Visibility Wind Speed Wind Dir Waves Ship Positions

Seago Bremerhaven

Last reported at 2018-Aug-16 12:25 UTC. Time now 2018-Aug-19 22:54 UTC.
Position N 33°27' E 031°29'.

Length 294 m; draft 10.6 m.

Type: Cargo ship. MMSI: 219118000.

Date/timePositionNaut miles runAvg speedWind from/ knotsBaromVisibWave heightAir tempDewpointWater temp
2018-Aug-16 12:25N 33°27' E 031°29'713.1
2018-Aug-16 11:54N 33°26' E 031°37'813.1
2018-Aug-16 11:19N 33°24' E 031°46'413.1
2018-Aug-16 11:01N 33°24' E 031°51'14313.0
2018-Aug-16 00:01N 32°57' E 034°38'113.1
2018-Aug-15 23:59N 32°57' E 034°39'613.2
2018-Aug-15 23:29N 32°55' E 034°46'713.3
2018-Aug-15 22:58N 32°54' E 034°54'5 8.6
2018-Aug-15 22:26N 32°54' E 034°60'0 0.2
2018-Aug-15 22:00N 32°54' E 035°00'0 0.0
2018-Aug-15 21:27N 32°54' E 035°00'0 0.0
2018-Aug-15 20:57N 32°54' E 035°00'0 0.0
2018-Aug-15 20:27N 32°54' E 035°00'0 0.0
2018-Aug-15 20:00N 32°54' E 034°60'0 0.0
2018-Aug-15 19:18N 32°54' E 035°00'0 0.0
2018-Aug-15 18:54N 32°54' E 034°60'0 0.1
2018-Aug-15 18:30N 32°54' E 034°60'0 0.0
2018-Aug-15 17:55N 32°54' E 035°00'0 0.0
2018-Aug-15 17:30N 32°54' E 035°00'0 0.0
2018-Aug-15 16:50N 32°54' E 035°00'0 0.1
2018-Aug-15 16:30N 32°54' E 034°60'0 0.0
2018-Aug-15 15:57N 32°54' E 034°60'0 0.0
2018-Aug-15 15:30N 32°54' E 035°00'0 0.0
2018-Aug-15 15:00N 32°54' E 035°00'0 0.0
2018-Aug-15 14:22N 32°54' E 035°00'0 0.0
2018-Aug-15 13:51N 32°54' E 035°00'0 0.0
2018-Aug-15 13:30N 32°54' E 035°00'0 0.0
2018-Aug-15 12:58N 32°54' E 035°00'0 0.0
2018-Aug-15 12:28N 32°54' E 035°00'0 0.0
2018-Aug-15 11:54N 32°54' E 035°00'0 0.0
2018-Aug-15 11:28N 32°54' E 035°00'0 0.0
2018-Aug-15 10:48N 32°54' E 035°00'0 0.0
2018-Aug-15 10:30N 32°54' E 035°00'0 0.0
2018-Aug-15 09:52N 32°54' E 035°00'0 0.0
2018-Aug-15 08:42N 32°54' E 034°60'0 0.0
2018-Aug-15 08:09N 32°54' E 035°00'0 0.0
2018-Aug-15 07:42N 32°54' E 034°60'0 0.0
2018-Aug-15 07:18N 32°54' E 034°60'0 0.1
2018-Aug-15 07:00N 32°54' E 035°00'0 0.0
2018-Aug-15 06:30N 32°54' E 035°00'0 0.0
2018-Aug-15 06:00N 32°54' E 035°00'0 0.0
2018-Aug-15 05:30N 32°54' E 035°00'0 0.0
2018-Aug-15 04:57N 32°54' E 035°00'0 0.0
2018-Aug-15 04:30N 32°54' E 035°00'0 0.0
2018-Aug-15 03:48N 32°54' E 035°00'0 0.1
2018-Aug-15 03:30N 32°54' E 035°00'0 0.0
2018-Aug-15 03:00N 32°54' E 035°00'0 0.0
2018-Aug-15 02:27N 32°54' E 035°00'0 0.0
2018-Aug-15 02:00N 32°54' E 035°00'0 0.0
2018-Aug-15 01:30N 32°54' E 035°00'0 0.0
2018-Aug-15 00:58N 32°54' E 034°60'0 0.6
2018-Aug-15 00:27N 32°54' E 034°60'3 0.1
2018-Aug-14 04:17N 32°51' E 035°00'0 0.8
2018-Aug-14 03:59N 32°51' E 035°00'0 0.4
2018-Aug-14 03:27N 32°51' E 034°60'3 2.0
2018-Aug-14 01:44N 32°53' E 034°56'2 7.7
2018-Aug-14 01:27N 32°54' E 034°54'4 7.6
2018-Aug-14 01:00N 32°55' E 034°50'5 9.7
2018-Aug-14 00:30N 32°56' E 034°44'510.2
2018-Aug-13 23:59N 32°57' E 034°38'2512.8
2018-Aug-13 22:02N 33°01' E 034°09'113.3
2018-Aug-13 21:59N 33°01' E 034°08'613.2
2018-Aug-13 21:30N 33°02' E 034°01'713.1
2018-Aug-13 21:00N 33°02' E 033°53'613.1
2018-Aug-13 20:30N 33°00' E 033°45'713.3
2018-Aug-13 20:01N 32°59' E 033°38'713.4
2018-Aug-13 19:28N 32°56' E 033°30'613.3
2018-Aug-13 19:00N 32°54' E 033°23'713.3
2018-Aug-13 18:30N 32°52' E 033°15'813.0
2018-Aug-13 17:52N 32°49' E 033°06'  
2018-Aug-11 02:17N 32°08' E 031°20'414.7
2018-Aug-11 02:00N 32°08' E 031°24'814.8
2018-Aug-11 01:28N 32°08' E 031°34'1214.9
2018-Aug-11 00:40N 32°08' E 031°48'314.7
2018-Aug-11 00:28N 32°08' E 031°51'3214.7
2018-Aug-10 22:16N 32°08' E 032°29'614.7
2018-Aug-10 21:53N 32°08' E 032°36'514.7
2018-Aug-10 21:30N 32°08' E 032°43'1114.6
2018-Aug-10 20:43N 32°08' E 032°56'414.7
2018-Aug-10 20:28N 32°08' E 033°01'714.4
2018-Aug-10 20:01N 32°08' E 033°08'714.7
2018-Aug-10 19:30N 32°08' E 033°17'714.8
2018-Aug-10 19:01N 32°08' E 033°26'714.7
2018-Aug-10 18:31N 32°08' E 033°35'714.7
2018-Aug-10 18:01N 32°08' E 033°43'714.6
2018-Aug-10 17:30N 32°08' E 033°52'814.7
2018-Aug-10 17:00N 32°04' E 033°60'714.7
2018-Aug-10 16:30N 32°01' E 034°07'714.7
2018-Aug-10 16:00N 31°58' E 034°15'814.7
2018-Aug-10 15:30N 31°55' E 034°23'714.5
2018-Aug-10 15:00N 31°52' E 034°31'56 1.6
2018-Aug-09 04:29N 32°31' E 033°44'710.9
2018-Aug-09 03:48N 32°38' E 033°41'510.8
2018-Aug-09 03:22N 32°43' E 033°39'1110.9
2018-Aug-09 02:22N 32°53' E 033°35'911.0
2018-Aug-09 01:32N 33°02' E 033°33'011.0
2018-Aug-09 01:30N 33°02' E 033°33'1510.9
2018-Aug-09 00:06N 33°17' E 033°29'411.0
2018-Aug-08 23:45N 33°21' E 033°27'411.1
2018-Aug-08 23:24N 33°25' E 033°26'611.1
2018-Aug-08 22:53N 33°30' E 033°25'411.1
2018-Aug-08 22:30N 33°34' E 033°24'511.0
2018-Aug-08 22:00N 33°40' E 033°22'510.9
2018-Aug-08 21:30N 33°45' E 033°21'611.0
2018-Aug-08 20:59N 33°51' E 033°19'510.9
2018-Aug-08 20:30N 33°56' E 033°18'611.2
2018-Aug-08 20:00N 34°01' E 033°16'611.7
2018-Aug-08 19:31N 34°07' E 033°15'611.6
2018-Aug-08 19:01N 34°12' E 033°13'612.1
2018-Aug-08 18:30N 34°18' E 033°11'612.3
2018-Aug-08 18:00N 34°24' E 033°09'612.4
2018-Aug-08 17:29N 34°30' E 033°07'612.2
2018-Aug-08 17:00N 34°36' E 033°05'4 8.1
2018-Aug-08 16:31N 34°39' E 033°02'1 1.5
2018-Aug-08 16:00N 34°39' E 033°01'0 0.0
2018-Aug-08 15:27N 34°39' E 033°01'0 0.0
2018-Aug-08 15:00N 34°39' E 033°01'0 0.0
2018-Aug-08 14:30N 34°39' E 033°01'0 0.0
2018-Aug-08 14:00N 34°39' E 033°01'0 0.0
2018-Aug-08 13:30N 34°39' E 033°01'0 0.0
2018-Aug-08 13:00N 34°39' E 033°01'0 0.0
2018-Aug-08 12:27N 34°39' E 033°01'0 0.0
2018-Aug-08 12:00N 34°39' E 033°01'0 0.0
2018-Aug-08 11:17N 34°39' E 033°01'0 0.0
2018-Aug-08 10:59N 34°39' E 033°01'0 0.0
2018-Aug-08 10:29N 34°39' E 033°01'0 0.0
2018-Aug-08 09:59N 34°39' E 033°01'0 0.0
2018-Aug-08 09:29N 34°39' E 033°01'0 0.0
2018-Aug-08 08:59N 34°39' E 033°01'0 0.0
2018-Aug-08 08:29N 34°39' E 033°01'0 0.0
2018-Aug-08 07:59N 34°39' E 033°01'0 0.0
2018-Aug-08 07:29N 34°39' E 033°01'0 0.0
2018-Aug-08 06:59N 34°39' E 033°01'0 0.0
2018-Aug-08 06:29N 34°39' E 033°01'0 0.0
2018-Aug-08 05:59N 34°39' E 033°01'0 0.0
2018-Aug-08 05:29N 34°39' E 033°01'0 0.0
2018-Aug-08 04:59N 34°39' E 033°01'0 0.0
2018-Aug-08 04:29N 34°39' E 033°01'0 0.0
2018-Aug-08 03:59N 34°39' E 033°01'0 0.0
2018-Aug-08 03:29N 34°39' E 033°01'0 0.0
2018-Aug-08 02:59N 34°39' E 033°01'0 0.3
2018-Aug-08 02:30N 34°39' E 033°01'1 2.8
2018-Aug-08 02:00N 34°39' E 033°03'2 4.5
2018-Aug-08 01:30N 34°38' E 033°05'5 9.4
2018-Aug-08 01:00N 34°33' E 033°05'4 7.3
2018-Aug-08 00:30N 34°31' E 033°02'5 9.6
2018-Aug-08 00:00N 34°31' E 032°56'5 9.8
2018-Aug-07 23:30N 34°31' E 032°50'815.5
2018-Aug-07 23:01N 34°31' E 032°41'917.6
2018-Aug-07 22:30N 34°31' E 032°30'917.6
2018-Aug-07 22:00N 34°31' E 032°19'917.4
2018-Aug-07 21:29N 34°32' E 032°09'917.2
2018-Aug-07 20:59N 34°32' E 031°58'2617.2
2018-Aug-07 19:27N 34°33' E 031°26'817.3
2018-Aug-07 19:01N 34°33' E 031°17'  
Track history (hours):
 
Tides and Currents Weather Stations Pressure Air Temp Water Temp Dewpoint Dewpoint Depression Visibility Wind Speed Wind Dir Waves Ship Positions

Seago Bremerhaven

Last reported at 2018-Aug-16 12:25 UTC. Time now 2018-Aug-19 22:54 UTC.
Position N 33°27' E 031°29'.

Length 294 m; draft 10.6 m.

Type: Cargo ship. MMSI: 219118000.

Date/timePositionNaut miles runAvg speedWind from/ knotsBaromVisibWave heightAir tempDewpointWater temp
2018-Aug-16 12:25N 33°27' E 031°29'713.1
2018-Aug-16 11:54N 33°26' E 031°37'813.1
2018-Aug-16 11:19N 33°24' E 031°46'413.1
2018-Aug-16 11:01N 33°24' E 031°51'14313.0
2018-Aug-16 00:01N 32°57' E 034°38'113.1
2018-Aug-15 23:59N 32°57' E 034°39'613.2
2018-Aug-15 23:29N 32°55' E 034°46'713.3
2018-Aug-15 22:58N 32°54' E 034°54'5 8.6
2018-Aug-15 22:26N 32°54' E 034°60'0 0.2
2018-Aug-15 22:00N 32°54' E 035°00'0 0.0
2018-Aug-15 21:27N 32°54' E 035°00'0 0.0
2018-Aug-15 20:57N 32°54' E 035°00'0 0.0
2018-Aug-15 20:27N 32°54' E 035°00'0 0.0
2018-Aug-15 20:00N 32°54' E 034°60'0 0.0
2018-Aug-15 19:18N 32°54' E 035°00'0 0.0
2018-Aug-15 18:54N 32°54' E 034°60'0 0.1
2018-Aug-15 18:30N 32°54' E 034°60'0 0.0
2018-Aug-15 17:55N 32°54' E 035°00'0 0.0
2018-Aug-15 17:30N 32°54' E 035°00'0 0.0
2018-Aug-15 16:50N 32°54' E 035°00'0 0.1
2018-Aug-15 16:30N 32°54' E 034°60'0 0.0
2018-Aug-15 15:57N 32°54' E 034°60'0 0.0
2018-Aug-15 15:30N 32°54' E 035°00'0 0.0
2018-Aug-15 15:00N 32°54' E 035°00'0 0.0
2018-Aug-15 14:22N 32°54' E 035°00'0 0.0
2018-Aug-15 13:51N 32°54' E 035°00'0 0.0
2018-Aug-15 13:30N 32°54' E 035°00'0 0.0
2018-Aug-15 12:58N 32°54' E 035°00'0 0.0
2018-Aug-15 12:28N 32°54' E 035°00'0 0.0
2018-Aug-15 11:54N 32°54' E 035°00'0 0.0
2018-Aug-15 11:28N 32°54' E 035°00'0 0.0
2018-Aug-15 10:48N 32°54' E 035°00'0 0.0
2018-Aug-15 10:30N 32°54' E 035°00'0 0.0
2018-Aug-15 09:52N 32°54' E 035°00'0 0.0
2018-Aug-15 08:42N 32°54' E 034°60'0 0.0
2018-Aug-15 08:09N 32°54' E 035°00'0 0.0
2018-Aug-15 07:42N 32°54' E 034°60'0 0.0
2018-Aug-15 07:18N 32°54' E 034°60'0 0.1
2018-Aug-15 07:00N 32°54' E 035°00'0 0.0
2018-Aug-15 06:30N 32°54' E 035°00'0 0.0
2018-Aug-15 06:00N 32°54' E 035°00'0 0.0
2018-Aug-15 05:30N 32°54' E 035°00'0 0.0
2018-Aug-15 04:57N 32°54' E 035°00'0 0.0
2018-Aug-15 04:30N 32°54' E 035°00'0 0.0
2018-Aug-15 03:48N 32°54' E 035°00'0 0.1
2018-Aug-15 03:30N 32°54' E 035°00'0 0.0
2018-Aug-15 03:00N 32°54' E 035°00'0 0.0
2018-Aug-15 02:27N 32°54' E 035°00'0 0.0
2018-Aug-15 02:00N 32°54' E 035°00'0 0.0
2018-Aug-15 01:30N 32°54' E 035°00'0 0.0
2018-Aug-15 00:58N 32°54' E 034°60'0 0.6
2018-Aug-15 00:27N 32°54' E 034°60'3 0.1
2018-Aug-14 04:17N 32°51' E 035°00'0 0.8
2018-Aug-14 03:59N 32°51' E 035°00'0 0.4
2018-Aug-14 03:27N 32°51' E 034°60'3 2.0
2018-Aug-14 01:44N 32°53' E 034°56'2 7.7
2018-Aug-14 01:27N 32°54' E 034°54'4 7.6
2018-Aug-14 01:00N 32°55' E 034°50'5 9.7
2018-Aug-14 00:30N 32°56' E 034°44'510.2
2018-Aug-13 23:59N 32°57' E 034°38'2512.8
2018-Aug-13 22:02N 33°01' E 034°09'113.3
2018-Aug-13 21:59N 33°01' E 034°08'613.2
2018-Aug-13 21:30N 33°02' E 034°01'713.1
2018-Aug-13 21:00N 33°02' E 033°53'613.1
2018-Aug-13 20:30N 33°00' E 033°45'713.3
2018-Aug-13 20:01N 32°59' E 033°38'713.4
2018-Aug-13 19:28N 32°56' E 033°30'613.3
2018-Aug-13 19:00N 32°54' E 033°23'713.3
2018-Aug-13 18:30N 32°52' E 033°15'813.0
2018-Aug-13 17:52N 32°49' E 033°06'  
2018-Aug-11 02:17N 32°08' E 031°20'414.7
2018-Aug-11 02:00N 32°08' E 031°24'814.8
2018-Aug-11 01:28N 32°08' E 031°34'1214.9
2018-Aug-11 00:40N 32°08' E 031°48'314.7
2018-Aug-11 00:28N 32°08' E 031°51'3214.7
2018-Aug-10 22:16N 32°08' E 032°29'614.7
2018-Aug-10 21:53N 32°08' E 032°36'514.7
2018-Aug-10 21:30N 32°08' E 032°43'1114.6
2018-Aug-10 20:43N 32°08' E 032°56'414.7
2018-Aug-10 20:28N 32°08' E 033°01'714.4
2018-Aug-10 20:01N 32°08' E 033°08'714.7
2018-Aug-10 19:30N 32°08' E 033°17'714.8
2018-Aug-10 19:01N 32°08' E 033°26'714.7
2018-Aug-10 18:31N 32°08' E 033°35'714.7
2018-Aug-10 18:01N 32°08' E 033°43'714.6
2018-Aug-10 17:30N 32°08' E 033°52'814.7
2018-Aug-10 17:00N 32°04' E 033°60'714.7
2018-Aug-10 16:30N 32°01' E 034°07'714.7
2018-Aug-10 16:00N 31°58' E 034°15'814.7
2018-Aug-10 15:30N 31°55' E 034°23'714.5
2018-Aug-10 15:00N 31°52' E 034°31'56 1.6
2018-Aug-09 04:29N 32°31' E 033°44'710.9
2018-Aug-09 03:48N 32°38' E 033°41'510.8
2018-Aug-09 03:22N 32°43' E 033°39'1110.9
2018-Aug-09 02:22N 32°53' E 033°35'911.0
2018-Aug-09 01:32N 33°02' E 033°33'011.0
2018-Aug-09 01:30N 33°02' E 033°33'1510.9
2018-Aug-09 00:06N 33°17' E 033°29'411.0
2018-Aug-08 23:45N 33°21' E 033°27'411.1
2018-Aug-08 23:24N 33°25' E 033°26'611.1
2018-Aug-08 22:53N 33°30' E 033°25'411.1
2018-Aug-08 22:30N 33°34' E 033°24'511.0
2018-Aug-08 22:00N 33°40' E 033°22'510.9
2018-Aug-08 21:30N 33°45' E 033°21'611.0
2018-Aug-08 20:59N 33°51' E 033°19'510.9
2018-Aug-08 20:30N 33°56' E 033°18'611.2
2018-Aug-08 20:00N 34°01' E 033°16'611.7
2018-Aug-08 19:31N 34°07' E 033°15'611.6
2018-Aug-08 19:01N 34°12' E 033°13'612.1
2018-Aug-08 18:30N 34°18' E 033°11'612.3
2018-Aug-08 18:00N 34°24' E 033°09'612.4
2018-Aug-08 17:29N 34°30' E 033°07'612.2
2018-Aug-08 17:00N 34°36' E 033°05'4 8.1
2018-Aug-08 16:31N 34°39' E 033°02'1 1.5
2018-Aug-08 16:00N 34°39' E 033°01'0 0.0
2018-Aug-08 15:27N 34°39' E 033°01'0 0.0
2018-Aug-08 15:00N 34°39' E 033°01'0 0.0
2018-Aug-08 14:30N 34°39' E 033°01'0 0.0
2018-Aug-08 14:00N 34°39' E 033°01'0 0.0
2018-Aug-08 13:30N 34°39' E 033°01'0 0.0
2018-Aug-08 13:00N 34°39' E 033°01'0 0.0
2018-Aug-08 12:27N 34°39' E 033°01'0 0.0
2018-Aug-08 12:00N 34°39' E 033°01'0 0.0
2018-Aug-08 11:17N 34°39' E 033°01'0 0.0
2018-Aug-08 10:59N 34°39' E 033°01'0 0.0
2018-Aug-08 10:29N 34°39' E 033°01'0 0.0
2018-Aug-08 09:59N 34°39' E 033°01'0 0.0
2018-Aug-08 09:29N 34°39' E 033°01'0 0.0
2018-Aug-08 08:59N 34°39' E 033°01'0 0.0
2018-Aug-08 08:29N 34°39' E 033°01'0 0.0
2018-Aug-08 07:59N 34°39' E 033°01'0 0.0
2018-Aug-08 07:29N 34°39' E 033°01'0 0.0
2018-Aug-08 06:59N 34°39' E 033°01'0 0.0
2018-Aug-08 06:29N 34°39' E 033°01'0 0.0
2018-Aug-08 05:59N 34°39' E 033°01'0 0.0
2018-Aug-08 05:29N 34°39' E 033°01'0 0.0
2018-Aug-08 04:59N 34°39' E 033°01'0 0.0
2018-Aug-08 04:29N 34°39' E 033°01'0 0.0
2018-Aug-08 03:59N 34°39' E 033°01'0 0.0
2018-Aug-08 03:29N 34°39' E 033°01'0 0.0
2018-Aug-08 02:59N 34°39' E 033°01'0 0.3
2018-Aug-08 02:30N 34°39' E 033°01'1 2.8
2018-Aug-08 02:00N 34°39' E 033°03'2 4.5
2018-Aug-08 01:30N 34°38' E 033°05'5 9.4
2018-Aug-08 01:00N 34°33' E 033°05'4 7.3
2018-Aug-08 00:30N 34°31' E 033°02'5 9.6
2018-Aug-08 00:00N 34°31' E 032°56'5 9.8
2018-Aug-07 23:30N 34°31' E 032°50'815.5
2018-Aug-07 23:01N 34°31' E 032°41'917.6
2018-Aug-07 22:30N 34°31' E 032°30'917.6
2018-Aug-07 22:00N 34°31' E 032°19'917.4
2018-Aug-07 21:29N 34°32' E 032°09'917.2
2018-Aug-07 20:59N 34°32' E 031°58'2617.2
2018-Aug-07 19:27N 34°33' E 031°26'817.3
2018-Aug-07 19:01N 34°33' E 031°17'  

Dump ship's entire track history